Terminal Aerodrome Forecast
Issued by NWS

Home | Current Version | Previous Version | Text Only | Print | Product List | Glossary On
Versions: 1 2 3 4 5 6 7 8 9 10 11 12 13 14 15 16 17
982
FTUS43 KBIS 210545
TAFJMS
TAF
KJMS 210545Z 2106/2206 20006KT P6SM SCT150
     FM210700 19007KT P6SM BKN090 OVC110
     FM211200 18010KT P6SM FEW300
     FM211400 26010KT P6SM SCT200
     FM212100 25009KT P6SM BKN090
     FM220400 26006KT P6SM BKN040=

USA.gov is the U.S. government's official web portal to all federal, state and local government web resources and services.